HLL weather

Complejo Llao Llao Heliport
San Carlos De Bariloche, Río Negro Province, Argentina

Public forecast

Using degrees Celsius for public forecast. Weather courtesy of forecast.io.

Closest aviation weather report (METAR) to Complejo Llao Llao Heliport

Closest report is San Carlos De Bariloche Airport, 18.0 nm (33.3 km) ESE. Retrieved 2019/12/05 19:00 UTC (10 minutes ago):

SAZS 051900Z 29020KT 9999 FEW050 SCT200 21/02 Q1015

Closest aviation forecast (TAF) to Complejo Llao Llao Heliport

Closest forecast is San Carlos De Bariloche Airport, 18.0 nm (33.3 km) ESE. Retrieved 2019/12/05 18:00 UTC (1 hour ago):

TAF SAZS 051700Z 0518/0618 29020KT CAVOK TX23/0618Z TN10/0610Z BECMG 0519/0521 27015KT BECMG 0600/0602 VRB03KT BECMG 0612/0615 30010KT